sensor_id;sensor_type;location;lat;lon;timestamp;pressure;altitude;pressure_sealevel;temperature;humidity
69239;BME280;56349;51.816;-0.026;2023-07-24T00:00:54;99714.21;;;30.36;28.48
69239;BME280;56349;51.816;-0.026;2023-07-24T00:03:20;99714.48;;;30.42;28.41
69239;BME280;56349;51.816;-0.026;2023-07-24T00:05:46;99709.20;;;30.49;28.34
69239;BME280;56349;51.816;-0.026;2023-07-24T00:08:12;99710.30;;;30.56;28.27
69239;BME280;56349;51.816;-0.026;2023-07-24T00:10:39;99705.19;;;30.11;28.22
69239;BME280;56349;51.816;-0.026;2023-07-24T00:13:04;99704.60;;;30.65;28.17
69239;BME280;56349;51.816;-0.026;2023-07-24T00:15:30;99708.62;;;30.72;28.10
69239;BME280;56349;51.816;-0.026;2023-07-24T00:17:56;99710.56;;;30.78;28.03
69239;BME280;56349;51.816;-0.026;2023-07-24T00:20:22;99714.68;;;30.81;27.97
69239;BME280;56349;51.816;-0.026;2023-07-24T00:22:47;99715.75;;;30.36;27.94
69239;BME280;56349;51.816;-0.026;2023-07-24T00:25:13;99716.78;;;30.38;27.90
69239;BME280;56349;51.816;-0.026;2023-07-24T00:27:39;99713.48;;;30.42;27.86
69239;BME280;56349;51.816;-0.026;2023-07-24T00:30:07;99710.96;;;30.69;27.80
69239;BME280;56349;51.816;-0.026;2023-07-24T00:32:30;99707.98;;;30.50;27.77
69239;BME280;56349;51.816;-0.026;2023-07-24T00:34:56;99706.69;;;30.53;27.73
69239;BME280;56349;51.816;-0.026;2023-07-24T00:37:23;99706.73;;;30.55;27.71
69239;BME280;56349;51.816;-0.026;2023-07-24T00:39:48;99705.50;;;30.80;27.66
69239;BME280;56349;51.816;-0.026;2023-07-24T00:42:14;99707.09;;;30.59;27.63
69239;BME280;56349;51.816;-0.026;2023-07-24T00:44:40;99705.14;;;30.60;27.62
69239;BME280;56349;51.816;-0.026;2023-07-24T00:47:06;99706.10;;;30.61;27.59
69239;BME280;56349;51.816;-0.026;2023-07-24T00:49:33;99702.64;;;30.83;27.57
69239;BME280;56349;51.816;-0.026;2023-07-24T00:51:58;99698.63;;;30.83;27.57
69239;BME280;56349;51.816;-0.026;2023-07-24T00:54:24;99698.73;;;31.09;27.57
69239;BME280;56349;51.816;-0.026;2023-07-24T00:56:49;99700.36;;;30.63;27.54
69239;BME280;56349;51.816;-0.026;2023-07-24T00:59:15;99703.51;;;30.64;27.52
69239;BME280;56349;51.816;-0.026;2023-07-24T01:01:41;99699.42;;;30.66;27.49
69239;BME280;56349;51.816;-0.026;2023-07-24T01:04:06;99696.75;;;30.66;27.48
69239;BME280;56349;51.816;-0.026;2023-07-24T01:06:31;99693.19;;;30.67;27.46
69239;BME280;56349;51.816;-0.026;2023-07-24T01:08:57;99697.26;;;31.15;27.44
69239;BME280;56349;51.816;-0.026;2023-07-24T01:11:27;99694.30;;;30.60;27.40
69239;BME280;56349;51.816;-0.026;2023-07-24T01:13:55;99690.62;;;30.46;27.41
69239;BME280;56349;51.816;-0.026;2023-07-24T01:16:18;99690.94;;;30.45;27.52
69239;BME280;56349;51.816;-0.026;2023-07-24T01:18:42;99689.17;;;30.43;27.71
69239;BME280;56349;51.816;-0.026;2023-07-24T01:21:09;99685.23;;;29.84;27.92
69239;BME280;56349;51.816;-0.026;2023-07-24T01:23:44;99686.42;;;29.81;28.20
69239;BME280;56349;51.816;-0.026;2023-07-24T01:26:12;99687.68;;;29.78;28.48
69239;BME280;56349;51.816;-0.026;2023-07-24T01:28:23;99685.68;;;29.65;28.67
69239;BME280;56349;51.816;-0.026;2023-07-24T01:30:48;99683.61;;;29.59;28.80
69239;BME280;56349;51.816;-0.026;2023-07-24T01:33:13;99681.17;;;29.59;28.88
69239;BME280;56349;51.816;-0.026;2023-07-24T01:35:38;99679.97;;;29.62;28.91
69239;BME280;56349;51.816;-0.026;2023-07-24T01:38:04;99677.10;;;29.66;28.92
69239;BME280;56349;51.816;-0.026;2023-07-24T01:40:29;99675.58;;;29.49;28.91
69239;BME280;56349;51.816;-0.026;2023-07-24T01:42:55;99675.34;;;29.56;28.88
69239;BME280;56349;51.816;-0.026;2023-07-24T01:45:21;99673.12;;;29.62;28.83
69239;BME280;56349;51.816;-0.026;2023-07-24T01:47:47;99670.36;;;29.90;28.73
69239;BME280;56349;51.816;-0.026;2023-07-24T01:50:13;99670.49;;;29.67;28.66
69239;BME280;56349;51.816;-0.026;2023-07-24T01:52:39;99673.91;;;29.83;28.64
69239;BME280;56349;51.816;-0.026;2023-07-24T01:55:05;99673.40;;;29.71;28.67
69239;BME280;56349;51.816;-0.026;2023-07-24T01:57:30;99673.21;;;29.58;28.71
69239;BME280;56349;51.816;-0.026;2023-07-24T01:59:56;99669.45;;;29.63;28.85
69239;BME280;56349;51.816;-0.026;2023-07-24T02:02:22;99667.31;;;29.38;29.03
69239;BME280;56349;51.816;-0.026;2023-07-24T02:04:48;99667.64;;;29.15;29.21
69239;BME280;56349;51.816;-0.026;2023-07-24T02:07:14;99662.93;;;28.93;29.39
69239;BME280;56349;51.816;-0.026;2023-07-24T02:09:41;99657.98;;;28.92;29.61
69239;BME280;56349;51.816;-0.026;2023-07-24T02:12:07;99652.32;;;28.94;29.79
69239;BME280;56349;51.816;-0.026;2023-07-24T02:14:32;99647.58;;;28.72;29.99
69239;BME280;56349;51.816;-0.026;2023-07-24T02:16:58;99648.66;;;28.30;30.19
69239;BME280;56349;51.816;-0.026;2023-07-24T02:19:24;99647.82;;;28.33;30.39
69239;BME280;56349;51.816;-0.026;2023-07-24T02:21:49;99646.36;;;28.40;30.58
69239;BME280;56349;51.816;-0.026;2023-07-24T02:24:15;99649.55;;;28.21;30.78
69239;BME280;56349;51.816;-0.026;2023-07-24T02:26:41;99654.15;;;28.02;30.98
69239;BME280;56349;51.816;-0.026;2023-07-24T02:29:07;99657.81;;;28.08;31.17
69239;BME280;56349;51.816;-0.026;2023-07-24T02:31:32;99659.32;;;27.71;31.33
69239;BME280;56349;51.816;-0.026;2023-07-24T02:33:57;99656.38;;;27.79;31.49
69239;BME280;56349;51.816;-0.026;2023-07-24T02:36:22;99655.41;;;27.68;31.63
69239;BME280;56349;51.816;-0.026;2023-07-24T02:38:47;99654.25;;;27.57;31.77
69239;BME280;56349;51.816;-0.026;2023-07-24T02:41:12;99654.75;;;27.44;31.93
69239;BME280;56349;51.816;-0.026;2023-07-24T02:43:39;99650.93;;;27.32;32.06
69239;BME280;56349;51.816;-0.026;2023-07-24T02:46:05;99651.99;;;27.22;32.17
69239;BME280;56349;51.816;-0.026;2023-07-24T02:48:31;99651.29;;;27.13;32.35
69239;BME280;56349;51.816;-0.026;2023-07-24T02:50:57;99648.14;;;27.02;32.47
69239;BME280;56349;51.816;-0.026;2023-07-24T02:53:23;99651.79;;;26.92;32.62
69239;BME280;56349;51.816;-0.026;2023-07-24T02:55:49;99650.17;;;26.82;32.76
69239;BME280;56349;51.816;-0.026;2023-07-24T02:58:15;99649.80;;;26.72;32.86
69239;BME280;56349;51.816;-0.026;2023-07-24T03:00:41;99651.47;;;27.14;32.95
69239;BME280;56349;51.816;-0.026;2023-07-24T03:03:07;99654.20;;;26.86;33.04
69239;BME280;56349;51.816;-0.026;2023-07-24T03:05:34;99657.04;;;27.00;33.16
69239;BME280;56349;51.816;-0.026;2023-07-24T03:07:59;99656.84;;;26.92;33.23
69239;BME280;56349;51.816;-0.026;2023-07-24T03:10:25;99659.82;;;26.65;33.31
69239;BME280;56349;51.816;-0.026;2023-07-24T03:12:51;99660.22;;;26.32;33.41
69239;BME280;56349;51.816;-0.026;2023-07-24T03:15:18;99659.08;;;26.52;33.52
69239;BME280;56349;51.816;-0.026;2023-07-24T03:17:42;99654.92;;;26.20;33.57
69239;BME280;56349;51.816;-0.026;2023-07-24T03:20:09;99655.44;;;26.41;33.66
69239;BME280;56349;51.816;-0.026;2023-07-24T03:22:34;99655.25;;;26.57;33.75
69239;BME280;56349;51.816;-0.026;2023-07-24T03:25:01;99657.16;;;26.30;33.83
69239;BME280;56349;51.816;-0.026;2023-07-24T03:27:26;99655.60;;;26.49;33.86
69239;BME280;56349;51.816;-0.026;2023-07-24T03:29:52;99657.71;;;26.43;33.96
69239;BME280;56349;51.816;-0.026;2023-07-24T03:32:18;99657.73;;;26.62;34.06
69239;BME280;56349;51.816;-0.026;2023-07-24T03:34:44;99658.73;;;26.20;34.14
69239;BME280;56349;51.816;-0.026;2023-07-24T03:37:09;99658.63;;;26.50;34.17
69239;BME280;56349;51.816;-0.026;2023-07-24T03:39:35;99657.76;;;26.38;34.16
69239;BME280;56349;51.816;-0.026;2023-07-24T03:42:02;99659.66;;;26.54;34.07
69239;BME280;56349;51.816;-0.026;2023-07-24T03:44:27;99658.43;;;26.92;33.93
69239;BME280;56349;51.816;-0.026;2023-07-24T03:46:53;99656.63;;;26.61;33.76
69239;BME280;56349;51.816;-0.026;2023-07-24T03:49:19;99656.06;;;27.02;33.55
69239;BME280;56349;51.816;-0.026;2023-07-24T03:51:45;99657.72;;;26.83;33.41
69239;BME280;56349;51.816;-0.026;2023-07-24T03:54:11;99657.36;;;26.87;33.30
69239;BME280;56349;51.816;-0.026;2023-07-24T03:56:37;99658.05;;;26.89;33.21
69239;BME280;56349;51.816;-0.026;2023-07-24T03:59:05;99655.48;;;27.13;33.17
69239;BME280;56349;51.816;-0.026;2023-07-24T04:01:28;99655.96;;;26.83;33.16
69239;BME280;56349;51.816;-0.026;2023-07-24T04:03:55;99654.28;;;27.04;33.18
69239;BME280;56349;51.816;-0.026;2023-07-24T04:06:21;99655.20;;;26.74;33.18
69239;BME280;56349;51.816;-0.026;2023-07-24T04:08:47;99656.21;;;26.95;33.19
69239;BME280;56349;51.816;-0.026;2023-07-24T04:11:13;99659.47;;;26.62;33.24
69239;BME280;56349;51.816;-0.026;2023-07-24T04:13:39;99657.56;;;27.02;33.29
69239;BME280;56349;51.816;-0.026;2023-07-24T04:16:05;99654.72;;;26.94;33.37
69239;BME280;56349;51.816;-0.026;2023-07-24T04:18:31;99656.23;;;26.38;33.44
69239;BME280;56349;51.816;-0.026;2023-07-24T04:20:57;99657.23;;;26.58;33.50
69239;BME280;56349;51.816;-0.026;2023-07-24T04:23:23;99663.61;;;26.72;33.58
69239;BME280;56349;51.816;-0.026;2023-07-24T04:25:49;99664.09;;;26.42;33.66
69239;BME280;56349;51.816;-0.026;2023-07-24T04:28:13;99665.51;;;26.56;33.74
69239;BME280;56349;51.816;-0.026;2023-07-24T04:30:39;99666.68;;;26.49;33.82
69239;BME280;56349;51.816;-0.026;2023-07-24T04:33:05;99670.51;;;26.42;33.89
69239;BME280;56349;51.816;-0.026;2023-07-24T04:35:32;99669.60;;;26.37;33.94
69239;BME280;56349;51.816;-0.026;2023-07-24T04:37:58;99670.44;;;26.10;34.00
69239;BME280;56349;51.816;-0.026;2023-07-24T04:40:24;99675.21;;;26.27;34.05
69239;BME280;56349;51.816;-0.026;2023-07-24T04:42:49;99678.45;;;26.22;34.13
69239;BME280;56349;51.816;-0.026;2023-07-24T04:45:15;99680.71;;;25.95;34.16
69239;BME280;56349;51.816;-0.026;2023-07-24T04:47:40;99685.27;;;26.15;34.20
69239;BME280;56349;51.816;-0.026;2023-07-24T04:50:07;99688.97;;;26.31;34.26
69239;BME280;56349;51.816;-0.026;2023-07-24T04:52:32;99689.72;;;26.05;34.29
69239;BME280;56349;51.816;-0.026;2023-07-24T04:54:58;99688.90;;;26.00;34.34
69239;BME280;56349;51.816;-0.026;2023-07-24T04:57:24;99689.63;;;26.18;34.39
69239;BME280;56349;51.816;-0.026;2023-07-24T04:59:50;99692.04;;;25.91;34.46
69239;BME280;56349;51.816;-0.026;2023-07-24T05:02:16;99692.49;;;26.08;34.51
69239;BME280;56349;51.816;-0.026;2023-07-24T05:04:42;99693.46;;;25.83;34.56
69239;BME280;56349;51.816;-0.026;2023-07-24T05:07:08;99694.68;;;26.05;34.57
69239;BME280;56349;51.816;-0.026;2023-07-24T05:09:34;99695.78;;;25.81;34.59
69239;BME280;56349;51.816;-0.026;2023-07-24T05:11:59;99696.00;;;25.79;34.60
69239;BME280;56349;51.816;-0.026;2023-07-24T05:14:25;99692.81;;;25.97;34.66
69239;BME280;56349;51.816;-0.026;2023-07-24T05:16:52;99692.26;;;25.71;34.68
69239;BME280;56349;51.816;-0.026;2023-07-24T05:19:18;99692.50;;;25.68;34.73
69239;BME280;56349;51.816;-0.026;2023-07-24T05:21:44;99689.84;;;25.65;34.77
69239;BME280;56349;51.816;-0.026;2023-07-24T05:24:10;99691.70;;;26.11;34.79
69239;BME280;56349;51.816;-0.026;2023-07-24T05:26:36;99692.75;;;25.83;34.81
69239;BME280;56349;51.816;-0.026;2023-07-24T05:29:01;99695.32;;;25.80;34.84
69239;BME280;56349;51.816;-0.026;2023-07-24T05:31:27;99697.38;;;25.77;34.87
69239;BME280;56349;51.816;-0.026;2023-07-24T05:33:53;99696.26;;;25.74;34.91
69239;BME280;56349;51.816;-0.026;2023-07-24T05:36:19;99695.17;;;25.72;34.96
69239;BME280;56349;51.816;-0.026;2023-07-24T05:38:44;99695.24;;;25.50;34.95
69239;BME280;56349;51.816;-0.026;2023-07-24T05:41:11;99697.29;;;25.72;34.95
69239;BME280;56349;51.816;-0.026;2023-07-24T05:43:37;99698.52;;;25.47;34.98
69239;BME280;56349;51.816;-0.026;2023-07-24T05:46:03;99701.12;;;25.67;35.00
69239;BME280;56349;51.816;-0.026;2023-07-24T05:48:28;99700.43;;;25.66;35.02
69239;BME280;56349;51.816;-0.026;2023-07-24T05:50:54;99699.38;;;25.66;35.02
69239;BME280;56349;51.816;-0.026;2023-07-24T05:53:20;99703.80;;;25.90;35.07
69239;BME280;56349;51.816;-0.026;2023-07-24T05:55:46;99707.66;;;25.38;35.10
69239;BME280;56349;51.816;-0.026;2023-07-24T05:58:12;99711.00;;;25.86;35.09
69239;BME280;56349;51.816;-0.026;2023-07-24T06:00:38;99712.56;;;25.62;35.06
69239;BME280;56349;51.816;-0.026;2023-07-24T06:03:03;99715.70;;;25.61;35.06
69239;BME280;56349;51.816;-0.026;2023-07-24T06:05:29;99717.48;;;25.58;35.10
69239;BME280;56349;51.816;-0.026;2023-07-24T06:07:54;99718.59;;;25.83;35.12
69239;BME280;56349;51.816;-0.026;2023-07-24T06:10:19;99721.64;;;25.55;35.10
69239;BME280;56349;51.816;-0.026;2023-07-24T06:12:46;99720.60;;;25.80;35.13
69239;BME280;56349;51.816;-0.026;2023-07-24T06:15:11;99718.54;;;25.31;35.20
69239;BME280;56349;51.816;-0.026;2023-07-24T06:17:37;99715.72;;;25.52;35.20
69239;BME280;56349;51.816;-0.026;2023-07-24T06:20:04;99716.46;;;25.51;35.23
69239;BME280;56349;51.816;-0.026;2023-07-24T06:22:29;99716.99;;;25.52;35.23
69239;BME280;56349;51.816;-0.026;2023-07-24T06:24:55;99721.56;;;25.50;35.24
69239;BME280;56349;51.816;-0.026;2023-07-24T06:27:21;99724.99;;;25.76;35.26
69239;BME280;56349;51.816;-0.026;2023-07-24T06:29:47;99724.68;;;25.48;35.27
69239;BME280;56349;51.816;-0.026;2023-07-24T06:32:14;99726.18;;;25.47;35.27
69239;BME280;56349;51.816;-0.026;2023-07-24T06:34:40;99725.99;;;25.72;35.27
69239;BME280;56349;51.816;-0.026;2023-07-24T06:37:06;99729.18;;;25.73;35.27
69239;BME280;56349;51.816;-0.026;2023-07-24T06:39:32;99734.88;;;25.46;35.28
69239;BME280;56349;51.816;-0.026;2023-07-24T06:41:58;99739.46;;;25.73;35.27
69239;BME280;56349;51.816;-0.026;2023-07-24T06:44:24;99744.23;;;25.73;35.25
69239;BME280;56349;51.816;-0.026;2023-07-24T06:46:49;99746.51;;;25.72;35.27
69239;BME280;56349;51.816;-0.026;2023-07-24T06:49:15;99748.43;;;25.72;35.26
69239;BME280;56349;51.816;-0.026;2023-07-24T06:51:42;99748.55;;;25.72;35.26
69239;BME280;56349;51.816;-0.026;2023-07-24T06:54:06;99751.67;;;25.44;35.27
69239;BME280;56349;51.816;-0.026;2023-07-24T06:56:33;99759.29;;;25.62;35.26
69239;BME280;56349;51.816;-0.026;2023-07-24T06:58:59;99760.86;;;25.32;35.30
69239;BME280;56349;51.816;-0.026;2023-07-24T07:01:24;99761.39;;;25.59;35.26
69239;BME280;56349;51.816;-0.026;2023-07-24T07:03:50;99765.51;;;25.33;35.19
69239;BME280;56349;51.816;-0.026;2023-07-24T07:06:16;99767.13;;;25.62;35.33
69239;BME280;56349;51.816;-0.026;2023-07-24T07:08:42;99763.22;;;25.65;35.39
69239;BME280;56349;51.816;-0.026;2023-07-24T07:11:08;99762.30;;;25.68;35.44
69239;BME280;56349;51.816;-0.026;2023-07-24T07:13:34;99767.10;;;25.69;35.25
69239;BME280;56349;51.816;-0.026;2023-07-24T07:15:59;99770.86;;;25.70;35.30
69239;BME280;56349;51.816;-0.026;2023-07-24T07:18:25;99773.61;;;25.96;35.27
69239;BME280;56349;51.816;-0.026;2023-07-24T07:20:52;99776.57;;;25.83;35.24
69239;BME280;56349;51.816;-0.026;2023-07-24T07:23:17;99780.92;;;25.49;35.18
69239;BME280;56349;51.816;-0.026;2023-07-24T07:25:43;99785.23;;;25.93;34.97
69239;BME280;56349;51.816;-0.026;2023-07-24T07:28:08;99782.69;;;25.97;34.69
69239;BME280;56349;51.816;-0.026;2023-07-24T07:30:34;99785.37;;;26.03;34.39
69239;BME280;56349;51.816;-0.026;2023-07-24T07:33:00;99789.43;;;26.55;34.07
69239;BME280;56349;51.816;-0.026;2023-07-24T07:35:26;99789.77;;;26.87;33.75
69239;BME280;56349;51.816;-0.026;2023-07-24T07:37:52;99793.41;;;26.78;33.32
69239;BME280;56349;51.816;-0.026;2023-07-24T07:40:17;99796.41;;;27.35;32.99
69239;BME280;56349;51.816;-0.026;2023-07-24T07:42:58;99793.88;;;27.36;32.64
69239;BME280;56349;51.816;-0.026;2023-07-24T07:45:09;99795.86;;;27.64;32.31
69239;BME280;56349;51.816;-0.026;2023-07-24T07:47:34;99797.26;;;27.73;31.93
69239;BME280;56349;51.816;-0.026;2023-07-24T07:49:59;99791.86;;;28.00;31.64
69239;BME280;56349;51.816;-0.026;2023-07-24T07:52:25;99794.37;;;27.74;31.29
69239;BME280;56349;51.816;-0.026;2023-07-24T07:54:51;99795.51;;;27.94;30.96
69239;BME280;56349;51.816;-0.026;2023-07-24T07:57:17;99798.96;;;28.17;30.66
69239;BME280;56349;51.816;-0.026;2023-07-24T07:59:43;99797.90;;;28.34;30.44
69239;BME280;56349;51.816;-0.026;2023-07-24T08:02:08;99796.25;;;28.74;30.20
69239;BME280;56349;51.816;-0.026;2023-07-24T08:04:34;99800.19;;;28.45;30.04
69239;BME280;56349;51.816;-0.026;2023-07-24T08:07:00;99800.53;;;28.81;29.84
69239;BME280;56349;51.816;-0.026;2023-07-24T08:09:26;99803.25;;;28.72;29.62
69239;BME280;56349;51.816;-0.026;2023-07-24T08:11:51;99804.47;;;28.85;29.42
69239;BME280;56349;51.816;-0.026;2023-07-24T08:14:17;99806.31;;;28.96;29.27
69239;BME280;56349;51.816;-0.026;2023-07-24T08:16:43;99806.94;;;29.07;29.14
69239;BME280;56349;51.816;-0.026;2023-07-24T08:19:09;99806.60;;;28.93;29.06
69239;BME280;56349;51.816;-0.026;2023-07-24T08:21:34;99810.31;;;29.05;28.87
69239;BME280;56349;51.816;-0.026;2023-07-24T08:23:59;99812.94;;;28.89;28.66
69239;BME280;56349;51.816;-0.026;2023-07-24T08:26:25;99818.52;;;29.45;28.52
69239;BME280;56349;51.816;-0.026;2023-07-24T08:28:51;99820.98;;;29.26;28.41
69239;BME280;56349;51.816;-0.026;2023-07-24T08:31:17;99820.87;;;29.14;28.31
69239;BME280;56349;51.816;-0.026;2023-07-24T08:33:43;99822.40;;;29.20;28.13
69239;BME280;56349;51.816;-0.026;2023-07-24T08:36:10;99821.98;;;29.19;27.98
69239;BME280;56349;51.816;-0.026;2023-07-24T08:38:35;99824.88;;;29.62;27.90
69239;BME280;56349;51.816;-0.026;2023-07-24T08:41:01;99825.42;;;29.48;27.90
69239;BME280;56349;51.816;-0.026;2023-07-24T08:43:27;99827.06;;;29.30;27.95
69239;BME280;56349;51.816;-0.026;2023-07-24T08:45:52;99828.78;;;28.83;28.07
69239;BME280;56349;51.816;-0.026;2023-07-24T08:48:18;99831.93;;;28.90;28.20
69239;BME280;56349;51.816;-0.026;2023-07-24T08:50:42;99833.52;;;28.66;28.37
69239;BME280;56349;51.816;-0.026;2023-07-24T08:53:07;99836.26;;;28.41;28.58
69239;BME280;56349;51.816;-0.026;2023-07-24T08:55:32;99840.26;;;28.16;28.87
69239;BME280;56349;51.816;-0.026;2023-07-24T08:57:58;99842.51;;;28.33;29.47
69239;BME280;56349;51.816;-0.026;2023-07-24T09:00:24;99845.72;;;28.04;29.79
69239;BME280;56349;51.816;-0.026;2023-07-24T09:02:50;99844.76;;;28.02;30.02
69239;BME280;56349;51.816;-0.026;2023-07-24T09:05:16;99847.66;;;27.73;30.49
69239;BME280;56349;51.816;-0.026;2023-07-24T09:07:42;99847.92;;;27.21;30.75
69239;BME280;56349;51.816;-0.026;2023-07-24T09:10:08;99848.91;;;27.44;30.87
69239;BME280;56349;51.816;-0.026;2023-07-24T09:12:33;99856.71;;;27.16;31.19
69239;BME280;56349;51.816;-0.026;2023-07-24T09:15:03;99859.25;;;26.97;31.36
69239;BME280;56349;51.816;-0.026;2023-07-24T09:17:25;99859.00;;;26.80;31.59
69239;BME280;56349;51.816;-0.026;2023-07-24T09:19:56;99856.62;;;26.63;31.89
69239;BME280;56349;51.816;-0.026;2023-07-24T09:22:16;99855.49;;;26.93;32.05
69239;BME280;56349;51.816;-0.026;2023-07-24T09:24:50;99856.92;;;26.27;32.32
69239;BME280;56349;51.816;-0.026;2023-07-24T09:27:07;99862.60;;;26.43;32.49
69239;BME280;56349;51.816;-0.026;2023-07-24T09:29:33;99868.56;;;26.52;32.47
69239;BME280;56349;51.816;-0.026;2023-07-24T09:31:57;99869.62;;;26.34;32.58
69239;BME280;56349;51.816;-0.026;2023-07-24T09:34:23;99872.89;;;26.14;32.70
69239;BME280;56349;51.816;-0.026;2023-07-24T09:36:48;99870.83;;;25.93;32.83
69239;BME280;56349;51.816;-0.026;2023-07-24T09:39:14;99875.68;;;26.01;33.01
69239;BME280;56349;51.816;-0.026;2023-07-24T09:41:40;99877.60;;;26.09;33.19
69239;BME280;56349;51.816;-0.026;2023-07-24T09:44:07;99877.70;;;25.65;33.42
69239;BME280;56349;51.816;-0.026;2023-07-24T09:46:32;99885.22;;;25.76;33.62
69239;BME280;56349;51.816;-0.026;2023-07-24T09:48:57;99896.42;;;25.38;33.74
69239;BME280;56349;51.816;-0.026;2023-07-24T09:51:22;99898.28;;;25.49;33.72
69239;BME280;56349;51.816;-0.026;2023-07-24T09:53:52;99899.28;;;25.34;33.81
69239;BME280;56349;51.816;-0.026;2023-07-24T09:56:13;99902.71;;;24.95;34.01
69239;BME280;56349;51.816;-0.026;2023-07-24T09:58:39;99903.06;;;25.16;34.21
69239;BME280;56349;51.816;-0.026;2023-07-24T10:01:04;99906.70;;;25.10;34.27
69239;BME280;56349;51.816;-0.026;2023-07-24T10:03:29;99907.34;;;25.07;34.38
69239;BME280;56349;51.816;-0.026;2023-07-24T10:05:55;99906.78;;;25.00;34.39
69239;BME280;56349;51.816;-0.026;2023-07-24T10:08:20;99907.40;;;24.96;34.44
69239;BME280;56349;51.816;-0.026;2023-07-24T10:10:46;99910.80;;;24.93;34.56
69239;BME280;56349;51.816;-0.026;2023-07-24T10:13:12;99917.62;;;24.92;34.74
69239;BME280;56349;51.816;-0.026;2023-07-24T10:15:37;99919.23;;;24.84;34.89
69239;BME280;56349;51.816;-0.026;2023-07-24T10:18:03;99923.33;;;24.76;35.07
69239;BME280;56349;51.816;-0.026;2023-07-24T10:20:32;99925.86;;;24.69;35.07
69239;BME280;56349;51.816;-0.026;2023-07-24T10:22:52;99930.77;;;24.65;35.29
69239;BME280;56349;51.816;-0.026;2023-07-24T10:25:28;99933.46;;;24.60;35.18
69239;BME280;56349;51.816;-0.026;2023-07-24T10:27:45;99934.63;;;24.77;35.18
69239;BME280;56349;51.816;-0.026;2023-07-24T10:30:10;99938.42;;;24.49;35.32
69239;BME280;56349;51.816;-0.026;2023-07-24T10:32:45;99941.43;;;24.66;35.42
69239;BME280;56349;51.816;-0.026;2023-07-24T10:35:07;99943.43;;;24.83;35.42
69239;BME280;56349;51.816;-0.026;2023-07-24T10:37:32;99943.68;;;24.79;35.47
69239;BME280;56349;51.816;-0.026;2023-07-24T10:39:54;99949.83;;;24.55;35.40
69239;BME280;56349;51.816;-0.026;2023-07-24T10:42:22;99959.69;;;24.67;35.26
69239;BME280;56349;51.816;-0.026;2023-07-24T10:44:45;99957.19;;;24.62;35.32
69239;BME280;56349;51.816;-0.026;2023-07-24T10:47:11;99962.90;;;24.55;35.26
69239;BME280;56349;51.816;-0.026;2023-07-24T10:49:37;99963.08;;;24.52;35.24
69239;BME280;56349;51.816;-0.026;2023-07-24T10:52:04;99966.98;;;24.53;35.39
69239;BME280;56349;51.816;-0.026;2023-07-24T10:54:29;99971.61;;;24.60;35.75
69239;BME280;56349;51.816;-0.026;2023-07-24T10:56:58;99975.05;;;24.45;36.05
69239;BME280;56349;51.816;-0.026;2023-07-24T10:59:20;99979.19;;;24.49;36.53
69239;BME280;56349;51.816;-0.026;2023-07-24T11:01:46;99983.90;;;24.73;36.57
69239;BME280;56349;51.816;-0.026;2023-07-24T11:04:12;99982.72;;;24.55;36.49
69239;BME280;56349;51.816;-0.026;2023-07-24T11:06:37;99984.96;;;24.51;36.30
69239;BME280;56349;51.816;-0.026;2023-07-24T11:09:03;99988.39;;;24.46;36.22
69239;BME280;56349;51.816;-0.026;2023-07-24T11:11:30;99992.15;;;24.40;36.12
69239;BME280;56349;51.816;-0.026;2023-07-24T11:13:55;99997.16;;;24.57;36.15
69239;BME280;56349;51.816;-0.026;2023-07-24T11:16:20;100001.75;;;24.11;36.19
69239;BME280;56349;51.816;-0.026;2023-07-24T11:18:47;100002.33;;;24.59;36.12
69239;BME280;56349;51.816;-0.026;2023-07-24T11:21:13;100002.87;;;24.41;36.22
69239;BME280;56349;51.816;-0.026;2023-07-24T11:23:38;100005.25;;;24.49;36.23
69239;BME280;56349;51.816;-0.026;2023-07-24T11:26:06;100011.59;;;24.78;36.20
69239;BME280;56349;51.816;-0.026;2023-07-24T11:28:29;100013.45;;;24.65;36.10
69239;BME280;56349;51.816;-0.026;2023-07-24T11:31:02;100019.04;;;24.48;35.99
69239;BME280;56349;51.816;-0.026;2023-07-24T11:33:21;100021.83;;;25.01;35.97
69239;BME280;56349;51.816;-0.026;2023-07-24T11:35:46;100029.46;;;24.79;35.96
69239;BME280;56349;51.816;-0.026;2023-07-24T11:38:13;100024.21;;;25.10;35.76
69239;BME280;56349;51.816;-0.026;2023-07-24T11:40:38;100026.08;;;25.19;35.50
69239;BME280;56349;51.816;-0.026;2023-07-24T11:43:03;100028.63;;;25.57;35.20
69239;BME280;56349;51.816;-0.026;2023-07-24T11:45:29;100033.01;;;25.49;34.81
69239;BME280;56349;51.816;-0.026;2023-07-24T11:47:54;100033.05;;;26.33;34.44
69239;BME280;56349;51.816;-0.026;2023-07-24T11:50:20;100035.90;;;26.30;33.93
69239;BME280;56349;51.816;-0.026;2023-07-24T11:52:47;100038.30;;;26.42;33.49
69239;BME280;56349;51.816;-0.026;2023-07-24T11:55:12;100043.90;;;26.81;33.08
69239;BME280;56349;51.816;-0.026;2023-07-24T11:57:36;100042.91;;;27.20;32.68
69239;BME280;56349;51.816;-0.026;2023-07-24T12:00:03;100045.76;;;27.56;32.36
69239;BME280;56349;51.816;-0.026;2023-07-24T12:02:28;100044.84;;;27.87;32.11
69239;BME280;56349;51.816;-0.026;2023-07-24T12:04:57;100048.32;;;27.94;31.82
69239;BME280;56349;51.816;-0.026;2023-07-24T12:07:20;100052.03;;;27.95;31.56
69239;BME280;56349;51.816;-0.026;2023-07-24T12:09:51;100057.28;;;27.99;31.36
69239;BME280;56349;51.816;-0.026;2023-07-24T12:12:11;100061.71;;;28.45;31.17
69239;BME280;56349;51.816;-0.026;2023-07-24T12:14:37;100064.31;;;28.20;30.99
69239;BME280;56349;51.816;-0.026;2023-07-24T12:17:02;100069.57;;;28.40;30.81
69239;BME280;56349;51.816;-0.026;2023-07-24T12:19:27;100065.07;;;28.61;30.61
69239;BME280;56349;51.816;-0.026;2023-07-24T12:21:54;100067.54;;;28.76;30.46
69239;BME280;56349;51.816;-0.026;2023-07-24T12:24:20;100069.66;;;28.93;30.25
69239;BME280;56349;51.816;-0.026;2023-07-24T12:26:46;100074.17;;;29.09;30.07
69239;BME280;56349;51.816;-0.026;2023-07-24T12:29:12;100071.08;;;28.97;29.91
69239;BME280;56349;51.816;-0.026;2023-07-24T12:31:38;100072.10;;;29.38;29.75
69239;BME280;56349;51.816;-0.026;2023-07-24T12:34:04;100074.35;;;29.49;29.60
69239;BME280;56349;51.816;-0.026;2023-07-24T12:36:29;100073.09;;;29.61;29.45
69239;BME280;56349;51.816;-0.026;2023-07-24T12:38:55;100068.35;;;29.48;29.31